Dendermonde, Belgium
Current Conditions -  °F | °C
As of 9:50 AM on Friday 24 Oct 2014 (Local Time) from EBAW Reporting Station
Light Rain Light Rain  
Wind Chill: 11°   Ceiling: 3200
Heat Index: 11°   Visibility: 6mi
Dew Point:   Wind: 9mph
Humidity: 88%   Direction: 180°S
Pressure: 30.09"   Gusts: NA
Location:  51.03°N, 4.1°E
Report Text: EBAW 240750Z 18008KT 9999 -RA BKN032 11/09 Q1019 NOSIG
Loading
Personal Weather Stations






























Interactive Weather Map
Tropical Storm Tracking
New forecast layout! Learn more

10-Day Weather Forecast

Advertisements
Track Severe Weather on mobile